sensor_id;sensor_type;location;lat;lon;timestamp;P1;durP1;ratioP1;P2;durP2;ratioP2
23990;SDS011;12205;50.600;4.608;2023-05-10T00:00:20;46.00;;;10.57;;
23990;SDS011;12205;50.600;4.608;2023-05-10T00:02:49;34.78;;;10.02;;
23990;SDS011;12205;50.600;4.608;2023-05-10T00:05:16;41.72;;;9.98;;
23990;SDS011;12205;50.600;4.608;2023-05-10T00:07:46;31.20;;;8.57;;
23990;SDS011;12205;50.600;4.608;2023-05-10T00:10:14;26.20;;;7.95;;
23990;SDS011;12205;50.600;4.608;2023-05-10T00:12:42;27.33;;;7.95;;
23990;SDS011;12205;50.600;4.608;2023-05-10T00:15:09;26.05;;;7.43;;
23990;SDS011;12205;50.600;4.608;2023-05-10T00:17:37;28.45;;;7.90;;
23990;SDS011;12205;50.600;4.608;2023-05-10T00:20:05;22.27;;;6.78;;
23990;SDS011;12205;50.600;4.608;2023-05-10T00:22:33;30.70;;;8.20;;
23990;SDS011;12205;50.600;4.608;2023-05-10T00:25:03;21.65;;;5.85;;
23990;SDS011;12205;50.600;4.608;2023-05-10T00:27:31;23.42;;;5.93;;
23990;SDS011;12205;50.600;4.608;2023-05-10T00:29:59;22.77;;;6.38;;
23990;SDS011;12205;50.600;4.608;2023-05-10T00:32:27;15.75;;;4.28;;
23990;SDS011;12205;50.600;4.608;2023-05-10T00:34:54;15.82;;;4.57;;
23990;SDS011;12205;50.600;4.608;2023-05-10T00:37:21;17.45;;;4.95;;
23990;SDS011;12205;50.600;4.608;2023-05-10T00:39:48;18.13;;;4.82;;
23990;SDS011;12205;50.600;4.608;2023-05-10T00:42:17;22.08;;;5.28;;
23990;SDS011;12205;50.600;4.608;2023-05-10T00:44:44;12.73;;;3.85;;
23990;SDS011;12205;50.600;4.608;2023-05-10T00:47:11;15.73;;;5.03;;
23990;SDS011;12205;50.600;4.608;2023-05-10T00:49:39;14.57;;;3.72;;
23990;SDS011;12205;50.600;4.608;2023-05-10T00:52:07;18.08;;;4.22;;
23990;SDS011;12205;50.600;4.608;2023-05-10T00:54:35;12.20;;;3.38;;
23990;SDS011;12205;50.600;4.608;2023-05-10T00:57:03;14.52;;;3.53;;
23990;SDS011;12205;50.600;4.608;2023-05-10T00:59:33;12.52;;;3.70;;
23990;SDS011;12205;50.600;4.608;2023-05-10T01:02:01;11.98;;;3.50;;
23990;SDS011;12205;50.600;4.608;2023-05-10T01:04:29;12.88;;;3.53;;
23990;SDS011;12205;50.600;4.608;2023-05-10T01:06:57;14.57;;;4.07;;
23990;SDS011;12205;50.600;4.608;2023-05-10T01:09:25;11.35;;;3.35;;
23990;SDS011;12205;50.600;4.608;2023-05-10T01:11:53;15.68;;;4.70;;
23990;SDS011;12205;50.600;4.608;2023-05-10T01:14:22;19.48;;;4.50;;
23990;SDS011;12205;50.600;4.608;2023-05-10T01:16:52;13.38;;;3.95;;
23990;SDS011;12205;50.600;4.608;2023-05-10T01:19:22;12.50;;;4.28;;
23990;SDS011;12205;50.600;4.608;2023-05-10T01:21:53;14.52;;;4.55;;
23990;SDS011;12205;50.600;4.608;2023-05-10T01:24:44;15.85;;;4.32;;
23990;SDS011;12205;50.600;4.608;2023-05-10T01:30:37;17.10;;;4.53;;
23990;SDS011;12205;50.600;4.608;2023-05-10T01:33:43;14.07;;;4.20;;
23990;SDS011;12205;50.600;4.608;2023-05-10T01:36:20;13.45;;;4.18;;
23990;SDS011;12205;50.600;4.608;2023-05-10T01:38:57;18.02;;;4.55;;
23990;SDS011;12205;50.600;4.608;2023-05-10T01:41:32;16.42;;;4.00;;
23990;SDS011;12205;50.600;4.608;2023-05-10T01:44:12;16.45;;;4.97;;
23990;SDS011;12205;50.600;4.608;2023-05-10T01:46:45;10.63;;;4.10;;
23990;SDS011;12205;50.600;4.608;2023-05-10T01:49:23;20.00;;;5.35;;
23990;SDS011;12205;50.600;4.608;2023-05-10T01:51:53;16.95;;;4.95;;
23990;SDS011;12205;50.600;4.608;2023-05-10T01:54:26;17.45;;;5.40;;
23990;SDS011;12205;50.600;4.608;2023-05-10T01:56:58;20.13;;;5.22;;
23990;SDS011;12205;50.600;4.608;2023-05-10T01:59:30;14.43;;;5.20;;
23990;SDS011;12205;50.600;4.608;2023-05-10T02:02:02;22.83;;;6.22;;
23990;SDS011;12205;50.600;4.608;2023-05-10T02:04:33;15.43;;;5.30;;
23990;SDS011;12205;50.600;4.608;2023-05-10T02:07:03;18.52;;;5.35;;
23990;SDS011;12205;50.600;4.608;2023-05-10T02:09:32;18.73;;;5.30;;
23990;SDS011;12205;50.600;4.608;2023-05-10T02:12:01;20.30;;;5.95;;
23990;SDS011;12205;50.600;4.608;2023-05-10T02:14:32;17.75;;;5.32;;
23990;SDS011;12205;50.600;4.608;2023-05-10T02:17:02;18.80;;;5.40;;
23990;SDS011;12205;50.600;4.608;2023-05-10T02:19:35;14.50;;;5.03;;
23990;SDS011;12205;50.600;4.608;2023-05-10T02:22:05;14.88;;;5.15;;
23990;SDS011;12205;50.600;4.608;2023-05-10T02:24:35;15.00;;;5.45;;
23990;SDS011;12205;50.600;4.608;2023-05-10T02:27:04;17.92;;;5.22;;
23990;SDS011;12205;50.600;4.608;2023-05-10T02:29:34;15.48;;;4.68;;
23990;SDS011;12205;50.600;4.608;2023-05-10T02:32:03;16.83;;;4.82;;
23990;SDS011;12205;50.600;4.608;2023-05-10T02:34:31;18.67;;;4.85;;
23990;SDS011;12205;50.600;4.608;2023-05-10T02:37:01;13.10;;;4.68;;
23990;SDS011;12205;50.600;4.608;2023-05-10T02:39:31;18.40;;;5.45;;
23990;SDS011;12205;50.600;4.608;2023-05-10T02:41:59;18.65;;;5.47;;
23990;SDS011;12205;50.600;4.608;2023-05-10T02:44:28;14.07;;;4.32;;
23990;SDS011;12205;50.600;4.608;2023-05-10T02:46:57;12.13;;;4.38;;
23990;SDS011;12205;50.600;4.608;2023-05-10T02:49:25;13.60;;;4.63;;
23990;SDS011;12205;50.600;4.608;2023-05-10T02:51:55;15.43;;;4.70;;
23990;SDS011;12205;50.600;4.608;2023-05-10T02:54:29;14.05;;;4.28;;
23990;SDS011;12205;50.600;4.608;2023-05-10T02:56:59;15.00;;;4.80;;
23990;SDS011;12205;50.600;4.608;2023-05-10T02:59:30;16.10;;;4.72;;
23990;SDS011;12205;50.600;4.608;2023-05-10T03:01:58;16.83;;;4.95;;
23990;SDS011;12205;50.600;4.608;2023-05-10T03:04:27;14.77;;;4.60;;
23990;SDS011;12205;50.600;4.608;2023-05-10T03:06:55;14.02;;;4.25;;
23990;SDS011;12205;50.600;4.608;2023-05-10T03:09:22;12.25;;;3.85;;
23990;SDS011;12205;50.600;4.608;2023-05-10T03:11:54;13.75;;;4.22;;
23990;SDS011;12205;50.600;4.608;2023-05-10T03:14:31;13.07;;;4.18;;
23990;SDS011;12205;50.600;4.608;2023-05-10T03:17:10;13.55;;;3.83;;
23990;SDS011;12205;50.600;4.608;2023-05-10T03:19:43;12.82;;;3.80;;
23990;SDS011;12205;50.600;4.608;2023-05-10T03:22:17;12.52;;;3.60;;
23990;SDS011;12205;50.600;4.608;2023-05-10T03:24:49;11.82;;;3.50;;
23990;SDS011;12205;50.600;4.608;2023-05-10T03:27:21;16.15;;;4.45;;
23990;SDS011;12205;50.600;4.608;2023-05-10T03:29:50;13.27;;;4.05;;
23990;SDS011;12205;50.600;4.608;2023-05-10T03:32:18;14.07;;;4.18;;
23990;SDS011;12205;50.600;4.608;2023-05-10T03:34:45;13.93;;;3.97;;
23990;SDS011;12205;50.600;4.608;2023-05-10T03:37:13;11.25;;;3.58;;
23990;SDS011;12205;50.600;4.608;2023-05-10T03:39:40;11.57;;;3.42;;
23990;SDS011;12205;50.600;4.608;2023-05-10T03:42:09;11.98;;;3.40;;
23990;SDS011;12205;50.600;4.608;2023-05-10T03:44:39;12.82;;;3.33;;
23990;SDS011;12205;50.600;4.608;2023-05-10T03:47:06;17.70;;;4.32;;
23990;SDS011;12205;50.600;4.608;2023-05-10T03:49:32;11.18;;;3.38;;
23990;SDS011;12205;50.600;4.608;2023-05-10T03:52:00;14.52;;;3.72;;
23990;SDS011;12205;50.600;4.608;2023-05-10T03:54:27;14.38;;;3.60;;
23990;SDS011;12205;50.600;4.608;2023-05-10T03:56:54;15.27;;;3.88;;
23990;SDS011;12205;50.600;4.608;2023-05-10T03:59:21;15.40;;;4.43;;
23990;SDS011;12205;50.600;4.608;2023-05-10T04:01:51;15.32;;;4.43;;
23990;SDS011;12205;50.600;4.608;2023-05-10T04:04:18;17.40;;;4.32;;
23990;SDS011;12205;50.600;4.608;2023-05-10T04:06:48;12.00;;;3.70;;
23990;SDS011;12205;50.600;4.608;2023-05-10T04:09:15;13.88;;;3.78;;
23990;SDS011;12205;50.600;4.608;2023-05-10T04:11:42;12.25;;;4.15;;
23990;SDS011;12205;50.600;4.608;2023-05-10T04:14:10;14.40;;;3.70;;
23990;SDS011;12205;50.600;4.608;2023-05-10T04:16:37;14.63;;;3.58;;
23990;SDS011;12205;50.600;4.608;2023-05-10T04:19:07;15.52;;;3.95;;
23990;SDS011;12205;50.600;4.608;2023-05-10T04:21:34;9.40;;;2.80;;
23990;SDS011;12205;50.600;4.608;2023-05-10T04:24:05;17.00;;;4.35;;
23990;SDS011;12205;50.600;4.608;2023-05-10T04:26:32;16.25;;;4.00;;
23990;SDS011;12205;50.600;4.608;2023-05-10T04:29:00;10.23;;;3.00;;
23990;SDS011;12205;50.600;4.608;2023-05-10T04:31:28;13.75;;;3.72;;
23990;SDS011;12205;50.600;4.608;2023-05-10T04:33:55;10.15;;;2.78;;
23990;SDS011;12205;50.600;4.608;2023-05-10T04:36:24;13.90;;;3.40;;
23990;SDS011;12205;50.600;4.608;2023-05-10T04:38:51;12.57;;;3.67;;
23990;SDS011;12205;50.600;4.608;2023-05-10T04:41:19;13.30;;;3.97;;
23990;SDS011;12205;50.600;4.608;2023-05-10T04:43:46;18.02;;;4.75;;
23990;SDS011;12205;50.600;4.608;2023-05-10T04:46:15;16.42;;;5.35;;
23990;SDS011;12205;50.600;4.608;2023-05-10T04:48:42;14.95;;;5.50;;
23990;SDS011;12205;50.600;4.608;2023-05-10T04:51:09;16.80;;;4.57;;
23990;SDS011;12205;50.600;4.608;2023-05-10T04:53:39;15.23;;;4.53;;
23990;SDS011;12205;50.600;4.608;2023-05-10T04:56:07;12.25;;;4.80;;
23990;SDS011;12205;50.600;4.608;2023-05-10T04:58:35;11.57;;;4.13;;
23990;SDS011;12205;50.600;4.608;2023-05-10T05:01:06;13.75;;;4.28;;
23990;SDS011;12205;50.600;4.608;2023-05-10T05:03:34;11.30;;;4.28;;
23990;SDS011;12205;50.600;4.608;2023-05-10T05:06:02;13.35;;;3.80;;
23990;SDS011;12205;50.600;4.608;2023-05-10T05:08:30;15.82;;;3.60;;
23990;SDS011;12205;50.600;4.608;2023-05-10T05:10:59;7.38;;;3.00;;
23990;SDS011;12205;50.600;4.608;2023-05-10T05:13:26;16.08;;;3.75;;
23990;SDS011;12205;50.600;4.608;2023-05-10T05:15:53;9.23;;;3.58;;
23990;SDS011;12205;50.600;4.608;2023-05-10T05:18:20;10.95;;;3.13;;
23990;SDS011;12205;50.600;4.608;2023-05-10T05:20:48;9.25;;;2.70;;
23990;SDS011;12205;50.600;4.608;2023-05-10T05:23:15;13.95;;;3.17;;
23990;SDS011;12205;50.600;4.608;2023-05-10T05:25:43;9.43;;;2.78;;
23990;SDS011;12205;50.600;4.608;2023-05-10T05:28:12;9.15;;;2.30;;
23990;SDS011;12205;50.600;4.608;2023-05-10T05:30:39;14.73;;;3.28;;
23990;SDS011;12205;50.600;4.608;2023-05-10T05:33:06;13.25;;;2.85;;
23990;SDS011;12205;50.600;4.608;2023-05-10T05:35:33;9.18;;;2.45;;
23990;SDS011;12205;50.600;4.608;2023-05-10T05:38:00;6.30;;;2.28;;
23990;SDS011;12205;50.600;4.608;2023-05-10T05:40:27;7.15;;;2.13;;
23990;SDS011;12205;50.600;4.608;2023-05-10T05:42:55;12.07;;;2.92;;
23990;SDS011;12205;50.600;4.608;2023-05-10T05:45:24;8.05;;;2.30;;
23990;SDS011;12205;50.600;4.608;2023-05-10T05:47:55;9.95;;;2.50;;
23990;SDS011;12205;50.600;4.608;2023-05-10T05:50:23;7.88;;;2.70;;
23990;SDS011;12205;50.600;4.608;2023-05-10T05:52:50;10.32;;;2.70;;
23990;SDS011;12205;50.600;4.608;2023-05-10T05:55:21;9.63;;;3.00;;
23990;SDS011;12205;50.600;4.608;2023-05-10T05:57:49;17.27;;;3.67;;
23990;SDS011;12205;50.600;4.608;2023-05-10T06:00:16;7.88;;;2.42;;
23990;SDS011;12205;50.600;4.608;2023-05-10T06:02:45;8.55;;;2.13;;
23990;SDS011;12205;50.600;4.608;2023-05-10T06:05:12;6.68;;;1.92;;
23990;SDS011;12205;50.600;4.608;2023-05-10T06:07:40;6.20;;;1.92;;
23990;SDS011;12205;50.600;4.608;2023-05-10T06:10:07;5.82;;;1.80;;
23990;SDS011;12205;50.600;4.608;2023-05-10T06:12:34;6.10;;;1.42;;
23990;SDS011;12205;50.600;4.608;2023-05-10T06:15:01;5.63;;;1.65;;
23990;SDS011;12205;50.600;4.608;2023-05-10T06:17:28;4.07;;;1.38;;
23990;SDS011;12205;50.600;4.608;2023-05-10T06:19:56;3.97;;;1.42;;
23990;SDS011;12205;50.600;4.608;2023-05-10T06:22:23;4.38;;;1.50;;
23990;SDS011;12205;50.600;4.608;2023-05-10T06:24:50;5.07;;;1.40;;
23990;SDS011;12205;50.600;4.608;2023-05-10T06:27:17;4.97;;;1.33;;
23990;SDS011;12205;50.600;4.608;2023-05-10T06:29:43;3.70;;;1.25;;
23990;SDS011;12205;50.600;4.608;2023-05-10T06:32:11;6.97;;;1.67;;
23990;SDS011;12205;50.600;4.608;2023-05-10T06:34:38;3.63;;;1.40;;
23990;SDS011;12205;50.600;4.608;2023-05-10T06:37:06;8.82;;;1.60;;
23990;SDS011;12205;50.600;4.608;2023-05-10T06:39:33;3.92;;;1.33;;
23990;SDS011;12205;50.600;4.608;2023-05-10T06:42:00;5.13;;;1.73;;
23990;SDS011;12205;50.600;4.608;2023-05-10T06:44:31;6.47;;;1.63;;
23990;SDS011;12205;50.600;4.608;2023-05-10T06:46:58;5.32;;;1.70;;
23990;SDS011;12205;50.600;4.608;2023-05-10T06:49:25;4.82;;;1.55;;
23990;SDS011;12205;50.600;4.608;2023-05-10T06:51:52;6.78;;;1.92;;
23990;SDS011;12205;50.600;4.608;2023-05-10T06:54:20;6.10;;;1.65;;
23990;SDS011;12205;50.600;4.608;2023-05-10T06:56:48;7.97;;;1.80;;
23990;SDS011;12205;50.600;4.608;2023-05-10T06:59:15;8.63;;;2.08;;
23990;SDS011;12205;50.600;4.608;2023-05-10T07:01:42;7.97;;;2.35;;
23990;SDS011;12205;50.600;4.608;2023-05-10T07:04:09;7.72;;;2.00;;
23990;SDS011;12205;50.600;4.608;2023-05-10T07:06:35;7.43;;;1.73;;
23990;SDS011;12205;50.600;4.608;2023-05-10T07:09:02;6.28;;;2.03;;
23990;SDS011;12205;50.600;4.608;2023-05-10T07:11:31;6.55;;;1.83;;
23990;SDS011;12205;50.600;4.608;2023-05-10T07:13:57;8.25;;;1.88;;
23990;SDS011;12205;50.600;4.608;2023-05-10T07:16:25;5.65;;;1.85;;
23990;SDS011;12205;50.600;4.608;2023-05-10T07:18:51;6.93;;;1.90;;
23990;SDS011;12205;50.600;4.608;2023-05-10T07:21:18;15.75;;;2.40;;
23990;SDS011;12205;50.600;4.608;2023-05-10T07:23:46;6.78;;;1.70;;
23990;SDS011;12205;50.600;4.608;2023-05-10T07:26:12;8.35;;;1.95;;
23990;SDS011;12205;50.600;4.608;2023-05-10T07:28:41;8.00;;;1.65;;
23990;SDS011;12205;50.600;4.608;2023-05-10T07:31:08;7.32;;;1.75;;
23990;SDS011;12205;50.600;4.608;2023-05-10T07:33:35;7.43;;;1.63;;
23990;SDS011;12205;50.600;4.608;2023-05-10T07:36:02;5.63;;;1.38;;
23990;SDS011;12205;50.600;4.608;2023-05-10T07:38:29;6.00;;;1.70;;
23990;SDS011;12205;50.600;4.608;2023-05-10T07:40:56;4.45;;;1.40;;
23990;SDS011;12205;50.600;4.608;2023-05-10T07:43:23;5.00;;;1.50;;
23990;SDS011;12205;50.600;4.608;2023-05-10T07:45:51;4.85;;;1.38;;
23990;SDS011;12205;50.600;4.608;2023-05-10T07:48:18;7.03;;;1.60;;
23990;SDS011;12205;50.600;4.608;2023-05-10T07:50:45;7.90;;;1.40;;
23990;SDS011;12205;50.600;4.608;2023-05-10T07:53:12;7.00;;;1.50;;
23990;SDS011;12205;50.600;4.608;2023-05-10T07:55:38;10.45;;;1.80;;
23990;SDS011;12205;50.600;4.608;2023-05-10T07:58:05;9.00;;;1.90;;
23990;SDS011;12205;50.600;4.608;2023-05-10T08:00:32;7.43;;;1.90;;
23990;SDS011;12205;50.600;4.608;2023-05-10T08:03:01;7.63;;;1.63;;
23990;SDS011;12205;50.600;4.608;2023-05-10T08:05:28;8.45;;;1.98;;
23990;SDS011;12205;50.600;4.608;2023-05-10T08:07:55;10.18;;;2.15;;
23990;SDS011;12205;50.600;4.608;2023-05-10T08:10:22;8.30;;;1.40;;
23990;SDS011;12205;50.600;4.608;2023-05-10T08:12:50;7.40;;;1.52;;
23990;SDS011;12205;50.600;4.608;2023-05-10T08:15:17;6.47;;;1.90;;
23990;SDS011;12205;50.600;4.608;2023-05-10T08:17:44;7.07;;;1.90;;
23990;SDS011;12205;50.600;4.608;2023-05-10T08:20:12;6.97;;;1.70;;
23990;SDS011;12205;50.600;4.608;2023-05-10T08:22:41;5.00;;;1.60;;
23990;SDS011;12205;50.600;4.608;2023-05-10T08:25:08;4.82;;;1.48;;
23990;SDS011;12205;50.600;4.608;2023-05-10T08:27:35;5.78;;;1.50;;
23990;SDS011;12205;50.600;4.608;2023-05-10T08:30:02;6.63;;;1.73;;
23990;SDS011;12205;50.600;4.608;2023-05-10T08:32:30;8.70;;;2.75;;
23990;SDS011;12205;50.600;4.608;2023-05-10T08:34:57;9.38;;;2.80;;
23990;SDS011;12205;50.600;4.608;2023-05-10T08:37:25;9.98;;;2.80;;
23990;SDS011;12205;50.600;4.608;2023-05-10T08:39:52;7.80;;;2.25;;
23990;SDS011;12205;50.600;4.608;2023-05-10T08:42:19;8.52;;;2.38;;
23990;SDS011;12205;50.600;4.608;2023-05-10T08:44:48;9.35;;;2.38;;
23990;SDS011;12205;50.600;4.608;2023-05-10T08:47:16;5.78;;;1.88;;
23990;SDS011;12205;50.600;4.608;2023-05-10T08:49:45;7.32;;;2.05;;
23990;SDS011;12205;50.600;4.608;2023-05-10T08:52:14;5.93;;;1.50;;
23990;SDS011;12205;50.600;4.608;2023-05-10T08:54:43;6.85;;;1.67;;
23990;SDS011;12205;50.600;4.608;2023-05-10T08:57:10;4.40;;;1.45;;
23990;SDS011;12205;50.600;4.608;2023-05-10T08:59:37;4.97;;;1.60;;
23990;SDS011;12205;50.600;4.608;2023-05-10T09:02:05;5.72;;;1.77;;
23990;SDS011;12205;50.600;4.608;2023-05-10T09:04:32;11.07;;;2.25;;
23990;SDS011;12205;50.600;4.608;2023-05-10T09:06:59;6.15;;;1.60;;
23990;SDS011;12205;50.600;4.608;2023-05-10T09:09:26;6.03;;;1.50;;
23990;SDS011;12205;50.600;4.608;2023-05-10T09:11:55;5.00;;;1.35;;
23990;SDS011;12205;50.600;4.608;2023-05-10T09:14:23;7.55;;;1.58;;
23990;SDS011;12205;50.600;4.608;2023-05-10T09:16:51;2.67;;;0.98;;
23990;SDS011;12205;50.600;4.608;2023-05-10T09:19:19;4.25;;;1.40;;
23990;SDS011;12205;50.600;4.608;2023-05-10T09:21:46;4.25;;;1.40;;
23990;SDS011;12205;50.600;4.608;2023-05-10T09:24:13;4.82;;;1.35;;
23990;SDS011;12205;50.600;4.608;2023-05-10T09:26:45;4.63;;;1.42;;
23990;SDS011;12205;50.600;4.608;2023-05-10T09:29:14;3.53;;;1.35;;
23990;SDS011;12205;50.600;4.608;2023-05-10T09:31:45;3.00;;;1.20;;
23990;SDS011;12205;50.600;4.608;2023-05-10T09:34:16;4.18;;;1.10;;
23990;SDS011;12205;50.600;4.608;2023-05-10T09:36:50;3.03;;;0.95;;
23990;SDS011;12205;50.600;4.608;2023-05-10T09:39:18;2.22;;;0.80;;
23990;SDS011;12205;50.600;4.608;2023-05-10T09:41:45;2.97;;;1.08;;
23990;SDS011;12205;50.600;4.608;2023-05-10T09:44:17;2.50;;;1.10;;
23990;SDS011;12205;50.600;4.608;2023-05-10T09:46:49;2.92;;;1.27;;
23990;SDS011;12205;50.600;4.608;2023-05-10T09:49:17;3.00;;;0.85;;
23990;SDS011;12205;50.600;4.608;2023-05-10T09:51:45;2.10;;;0.80;;
23990;SDS011;12205;50.600;4.608;2023-05-10T09:54:12;1.45;;;0.43;;
23990;SDS011;12205;50.600;4.608;2023-05-10T09:56:40;3.03;;;0.40;;
23990;SDS011;12205;50.600;4.608;2023-05-10T09:59:08;1.48;;;0.40;;
23990;SDS011;12205;50.600;4.608;2023-05-10T10:01:38;10.30;;;1.00;;
23990;SDS011;12205;50.600;4.608;2023-05-10T10:04:06;0.55;;;0.20;;
23990;SDS011;12205;50.600;4.608;2023-05-10T10:06:35;0.95;;;0.30;;
23990;SDS011;12205;50.600;4.608;2023-05-10T10:09:03;0.30;;;0.10;;
23990;SDS011;12205;50.600;4.608;2023-05-10T10:11:31;1.27;;;0.30;;
23990;SDS011;12205;50.600;4.608;2023-05-10T10:13:58;2.22;;;0.40;;
23990;SDS011;12205;50.600;4.608;2023-05-10T10:16:26;1.10;;;0.20;;
23990;SDS011;12205;50.600;4.608;2023-05-10T10:18:56;0.57;;;0.20;;
23990;SDS011;12205;50.600;4.608;2023-05-10T10:21:23;1.08;;;0.22;;
23990;SDS011;12205;50.600;4.608;2023-05-10T10:23:50;1.85;;;0.40;;
23990;SDS011;12205;50.600;4.608;2023-05-10T10:26:18;0.75;;;0.32;;
23990;SDS011;12205;50.600;4.608;2023-05-10T10:28:48;1.67;;;0.40;;
23990;SDS011;12205;50.600;4.608;2023-05-10T10:31:21;2.80;;;0.50;;
23990;SDS011;12205;50.600;4.608;2023-05-10T10:33:59;1.95;;;0.50;;
23990;SDS011;12205;50.600;4.608;2023-05-10T10:36:29;3.78;;;0.88;;
23990;SDS011;12205;50.600;4.608;2023-05-10T10:38:59;3.13;;;0.68;;
23990;SDS011;12205;50.600;4.608;2023-05-10T10:41:31;3.70;;;0.68;;
23990;SDS011;12205;50.600;4.608;2023-05-10T10:49:32;3.03;;;0.60;;
23990;SDS011;12205;50.600;4.608;2023-05-10T10:52:12;2.85;;;0.90;;
23990;SDS011;12205;50.600;4.608;2023-05-10T10:54:41;3.53;;;0.52;;
23990;SDS011;12205;50.600;4.608;2023-05-10T10:57:13;1.98;;;0.63;;
23990;SDS011;12205;50.600;4.608;2023-05-10T10:59:41;2.40;;;0.50;;
23990;SDS011;12205;50.600;4.608;2023-05-10T11:02:09;1.80;;;0.45;;
23990;SDS011;12205;50.600;4.608;2023-05-10T11:04:59;4.70;;;0.82;;
23990;SDS011;12205;50.600;4.608;2023-05-10T11:07:30;1.52;;;0.50;;
23990;SDS011;12205;50.600;4.608;2023-05-10T11:10:03;1.95;;;0.40;;
23990;SDS011;12205;50.600;4.608;2023-05-10T11:12:31;2.10;;;0.47;;
23990;SDS011;12205;50.600;4.608;2023-05-10T11:15:00;3.50;;;0.60;;
23990;SDS011;12205;50.600;4.608;2023-05-10T11:17:27;2.33;;;0.80;;
23990;SDS011;12205;50.600;4.608;2023-05-10T11:20:04;2.20;;;0.60;;
23990;SDS011;12205;50.600;4.608;2023-05-10T11:22:48;2.47;;;0.60;;
23990;SDS011;12205;50.600;4.608;2023-05-10T11:25:17;3.58;;;0.77;;
23990;SDS011;12205;50.600;4.608;2023-05-10T11:27:45;4.35;;;0.80;;
23990;SDS011;12205;50.600;4.608;2023-05-10T11:30:14;5.43;;;1.10;;
23990;SDS011;12205;50.600;4.608;2023-05-10T11:32:43;5.32;;;1.02;;
23990;SDS011;12205;50.600;4.608;2023-05-10T11:35:15;5.10;;;1.10;;
23990;SDS011;12205;50.600;4.608;2023-05-10T11:37:42;2.42;;;0.70;;
23990;SDS011;12205;50.600;4.608;2023-05-10T11:40:15;3.08;;;0.70;;
23990;SDS011;12205;50.600;4.608;2023-05-10T11:42:43;3.75;;;0.70;;
23990;SDS011;12205;50.600;4.608;2023-05-10T11:45:15;4.40;;;0.90;;
23990;SDS011;12205;50.600;4.608;2023-05-10T11:47:43;3.33;;;0.70;;
23990;SDS011;12205;50.600;4.608;2023-05-10T11:50:11;3.33;;;0.90;;
23990;SDS011;12205;50.600;4.608;2023-05-10T11:52:40;3.05;;;0.70;;
23990;SDS011;12205;50.600;4.608;2023-05-10T11:55:10;4.20;;;0.80;;
23990;SDS011;12205;50.600;4.608;2023-05-10T11:57:39;5.05;;;0.60;;
23990;SDS011;12205;50.600;4.608;2023-05-10T12:00:08;5.28;;;0.90;;
23990;SDS011;12205;50.600;4.608;2023-05-10T12:02:36;4.38;;;0.63;;
23990;SDS011;12205;50.600;4.608;2023-05-10T12:05:04;3.22;;;0.68;;
23990;SDS011;12205;50.600;4.608;2023-05-10T12:07:33;2.88;;;0.55;;
23990;SDS011;12205;50.600;4.608;2023-05-10T12:10:06;2.13;;;0.68;;
23990;SDS011;12205;50.600;4.608;2023-05-10T12:12:38;1.98;;;0.40;;
23990;SDS011;12205;50.600;4.608;2023-05-10T12:15:10;3.28;;;0.70;;
23990;SDS011;12205;50.600;4.608;2023-05-10T12:17:39;2.50;;;0.60;;
23990;SDS011;12205;50.600;4.608;2023-05-10T12:20:13;1.98;;;0.50;;
23990;SDS011;12205;50.600;4.608;2023-05-10T12:22:43;2.10;;;0.50;;
23990;SDS011;12205;50.600;4.608;2023-05-10T12:25:16;1.52;;;0.40;;
23990;SDS011;12205;50.600;4.608;2023-05-10T12:27:48;3.42;;;0.45;;
23990;SDS011;12205;50.600;4.608;2023-05-10T12:30:20;2.20;;;0.60;;
23990;SDS011;12205;50.600;4.608;2023-05-10T12:32:49;2.45;;;0.68;;
23990;SDS011;12205;50.600;4.608;2023-05-10T12:35:17;2.95;;;0.88;;
23990;SDS011;12205;50.600;4.608;2023-05-10T12:37:47;3.65;;;1.05;;
23990;SDS011;12205;50.600;4.608;2023-05-10T12:40:16;4.00;;;0.95;;
23990;SDS011;12205;50.600;4.608;2023-05-10T12:42:43;1.83;;;0.60;;
23990;SDS011;12205;50.600;4.608;2023-05-10T12:45:11;2.55;;;0.52;;
23990;SDS011;12205;50.600;4.608;2023-05-10T12:47:39;1.98;;;0.50;;
23990;SDS011;12205;50.600;4.608;2023-05-10T12:50:07;2.17;;;0.43;;
23990;SDS011;12205;50.600;4.608;2023-05-10T12:52:35;2.70;;;0.40;;
23990;SDS011;12205;50.600;4.608;2023-05-10T12:55:02;0.65;;;0.20;;
23990;SDS011;12205;50.600;4.608;2023-05-10T12:57:32;0.43;;;0.20;;
23990;SDS011;12205;50.600;4.608;2023-05-10T12:59:59;0.45;;;0.17;;
23990;SDS011;12205;50.600;4.608;2023-05-10T13:02:28;0.47;;;0.20;;
23990;SDS011;12205;50.600;4.608;2023-05-10T13:04:58;1.50;;;0.20;;
23990;SDS011;12205;50.600;4.608;2023-05-10T13:07:25;1.17;;;0.20;;
23990;SDS011;12205;50.600;4.608;2023-05-10T13:09:56;0.77;;;0.20;;
23990;SDS011;12205;50.600;4.608;2023-05-10T13:12:23;1.35;;;0.20;;
23990;SDS011;12205;50.600;4.608;2023-05-10T13:14:52;0.52;;;0.20;;
23990;SDS011;12205;50.600;4.608;2023-05-10T13:17:20;2.45;;;0.20;;
23990;SDS011;12205;50.600;4.608;2023-05-10T13:19:47;0.63;;;0.10;;
23990;SDS011;12205;50.600;4.608;2023-05-10T13:22:15;1.10;;;0.20;;
23990;SDS011;12205;50.600;4.608;2023-05-10T13:24:42;0.73;;;0.10;;
23990;SDS011;12205;50.600;4.608;2023-05-10T13:27:10;0.30;;;0.20;;
23990;SDS011;12205;50.600;4.608;2023-05-10T13:29:37;0.77;;;0.20;;
23990;SDS011;12205;50.600;4.608;2023-05-10T13:32:06;1.02;;;0.10;;
23990;SDS011;12205;50.600;4.608;2023-05-10T13:34:34;1.73;;;0.20;;
23990;SDS011;12205;50.600;4.608;2023-05-10T13:37:01;0.35;;;0.10;;
23990;SDS011;12205;50.600;4.608;2023-05-10T13:39:29;0.40;;;0.10;;
23990;SDS011;12205;50.600;4.608;2023-05-10T13:41:59;0.30;;;0.10;;
23990;SDS011;12205;50.600;4.608;2023-05-10T13:44:26;1.48;;;0.10;;
23990;SDS011;12205;50.600;4.608;2023-05-10T13:46:53;0.75;;;0.10;;
23990;SDS011;12205;50.600;4.608;2023-05-10T13:49:21;0.32;;;0.10;;
23990;SDS011;12205;50.600;4.608;2023-05-10T13:51:48;1.65;;;0.00;;
23990;SDS011;12205;50.600;4.608;2023-05-10T13:54:16;0.13;;;0.10;;
23990;SDS011;12205;50.600;4.608;2023-05-10T13:56:44;0.60;;;0.05;;
23990;SDS011;12205;50.600;4.608;2023-05-10T13:59:13;1.40;;;0.10;;
23990;SDS011;12205;50.600;4.608;2023-05-10T14:01:40;0.77;;;0.20;;
23990;SDS011;12205;50.600;4.608;2023-05-10T14:04:07;0.75;;;0.05;;
23990;SDS011;12205;50.600;4.608;2023-05-10T14:06:36;1.63;;;0.10;;
23990;SDS011;12205;50.600;4.608;2023-05-10T14:09:03;2.35;;;0.20;;
23990;SDS011;12205;50.600;4.608;2023-05-10T14:11:30;0.45;;;0.10;;
23990;SDS011;12205;50.600;4.608;2023-05-10T14:13:57;1.48;;;0.10;;
23990;SDS011;12205;50.600;4.608;2023-05-10T14:16:24;2.15;;;0.10;;
23990;SDS011;12205;50.600;4.608;2023-05-10T14:18:51;0.82;;;0.20;;
23990;SDS011;12205;50.600;4.608;2023-05-10T14:21:18;0.45;;;0.10;;
23990;SDS011;12205;50.600;4.608;2023-05-10T14:23:46;0.73;;;0.20;;
23990;SDS011;12205;50.600;4.608;2023-05-10T14:26:13;0.40;;;0.10;;
23990;SDS011;12205;50.600;4.608;2023-05-10T14:28:40;1.40;;;0.10;;
23990;SDS011;12205;50.600;4.608;2023-05-10T14:31:08;0.73;;;0.20;;
23990;SDS011;12205;50.600;4.608;2023-05-10T14:33:35;2.75;;;0.20;;
23990;SDS011;12205;50.600;4.608;2023-05-10T14:36:03;2.47;;;0.25;;
23990;SDS011;12205;50.600;4.608;2023-05-10T14:38:34;0.50;;;0.10;;
23990;SDS011;12205;50.600;4.608;2023-05-10T14:41:03;0.22;;;0.08;;
23990;SDS011;12205;50.600;4.608;2023-05-10T14:43:31;0.30;;;0.10;;
23990;SDS011;12205;50.600;4.608;2023-05-10T14:45:58;1.73;;;0.20;;
23990;SDS011;12205;50.600;4.608;2023-05-10T14:48:29;1.40;;;0.10;;
23990;SDS011;12205;50.600;4.608;2023-05-10T14:50:56;0.63;;;0.17;;
23990;SDS011;12205;50.600;4.608;2023-05-10T14:53:24;2.67;;;0.30;;
23990;SDS011;12205;50.600;4.608;2023-05-10T14:55:51;0.90;;;0.22;;
23990;SDS011;12205;50.600;4.608;2023-05-10T14:58:20;0.55;;;0.10;;
23990;SDS011;12205;50.600;4.608;2023-05-10T15:00:48;0.43;;;0.10;;